Time;durP1;ratioP1;P1;durP2;ratioP2;P2;SDS_P1;SDS_P2;PMS_P1;PMS_P2;Temp;Humidity;BMP_temperature;BMP_pressure;BME280_temperature;BME280_humidity;BME280_pressure;Samples;Min_cycle;Max_cycle;Signal;HPM_P1;HPM_P2
2021/12/18 00:01:15;;;;;;;32.42;17.45;;;;;;;5.78;81.68;101835.63;4991070;28;20034;-77
2021/12/18 00:03:41;;;;;;;33.38;19.85;;;;;;;5.79;81.18;101833.88;4991754;28;20488;-76
2021/12/18 00:06:06;;;;;;;31.65;20.30;;;;;;;5.78;81.26;101835.63;4973130;28;20161;-76
2021/12/18 00:08:32;;;;;;;38.50;23.23;;;;;;;5.78;80.74;101838.25;4989844;28;20034;-74
2021/12/18 00:10:57;;;;;;;31.77;20.52;;;;;;;5.76;81.33;101840.00;4992203;28;20035;-74
2021/12/18 00:13:24;;;;;;;32.53;20.13;;;;;;;5.79;81.18;101832.13;4991347;28;20041;-76
2021/12/18 00:15:50;;;;;;;36.85;21.55;;;;;;;5.77;81.44;101835.63;4990777;28;20542;-73
2021/12/18 00:18:15;;;;;;;32.22;21.70;;;;;;;5.77;81.80;101835.63;4992136;28;20068;-76
2021/12/18 00:20:41;;;;;;;38.75;21.98;;;;;;;5.75;81.53;101838.22;4990470;28;20117;-75
2021/12/18 00:23:06;;;;;;;37.63;24.70;;;;;;;5.72;81.31;101832.97;4991539;28;20035;-74
2021/12/18 00:25:32;;;;;;;31.05;20.02;;;;;;;5.75;81.66;101839.97;4990425;28;20177;-74
2021/12/18 00:27:58;;;;;;;32.55;21.40;;;;;;;5.77;80.83;101830.38;4991903;28;20487;-74
2021/12/18 00:30:23;;;;;;;32.53;21.05;;;;;;;5.75;81.32;101837.34;4991202;28;20033;-76
2021/12/18 00:32:49;;;;;;;38.05;23.30;;;;;;;5.73;81.24;101834.72;4991674;28;20037;-75
2021/12/18 00:35:14;;;;;;;31.70;20.75;;;;;;;5.72;80.95;101832.97;4990776;28;20482;-76
2021/12/18 00:37:40;;;;;;;27.60;20.25;;;;;;;5.74;80.91;101826.03;4990954;28;20045;-77
2021/12/18 00:40:11;;;;;;;37.92;21.88;;;;;;;5.77;81.00;101825.16;4991248;28;20046;-75
2021/12/18 00:45:34;;;;;;;27.70;20.00;;;;;;;5.71;81.07;101823.41;4957076;28;20038;-77
2021/12/18 00:48:00;;;;;;;30.33;20.13;;;;;;;5.71;81.22;101830.34;4991636;28;20042;-77
2021/12/18 00:50:30;;;;;;;32.63;20.65;;;;;;;5.71;81.04;101815.53;4990821;28;20060;-77
2021/12/18 00:52:56;;;;;;;32.05;21.65;;;;;;;5.70;81.35;101820.75;4990453;28;20034;-77
2021/12/18 00:55:22;;;;;;;29.27;19.30;;;;;;;5.70;81.20;101816.41;4972628;28;20057;-76
2021/12/18 00:57:49;;;;;;;33.35;19.65;;;;;;;5.69;81.11;101814.66;4990805;28;20038;-77
2021/12/18 01:00:21;;;;;;;32.83;20.40;;;;;;;5.66;81.41;101814.66;4990559;28;20042;-77
2021/12/18 01:02:49;;;;;;;34.33;22.20;;;;;;;5.65;81.02;101823.34;4990347;28;20041;-77
2021/12/18 01:05:16;;;;;;;38.70;22.58;;;;;;;5.65;81.22;101819.88;4989599;28;20137;-77
2021/12/18 01:07:41;;;;;;;29.50;18.67;;;;;;;5.66;81.30;101817.28;4989923;28;20409;-76
2021/12/18 01:12:42;;;;;;;29.48;19.95;;;;;;;5.68;81.30;101817.25;4990892;28;20141;-77
2021/12/18 01:15:47;;;;;;;29.85;20.02;;;;;;;5.69;81.15;101819.03;4971933;28;20061;-77
2021/12/18 01:23:30;;;;;;;28.92;19.70;;;;;;;5.67;81.17;101824.25;4991287;28;20132;-76
2021/12/18 01:25:56;;;;;;;36.35;21.15;;;;;;;5.64;81.82;101818.13;4973536;28;20042;-77
2021/12/18 01:28:23;;;;;;;32.60;20.55;;;;;;;5.65;81.42;101822.50;4991733;28;20117;-77
2021/12/18 01:30:48;;;;;;;33.80;21.73;;;;;;;5.61;81.08;101829.44;4989959;28;20169;-76
2021/12/18 01:33:14;;;;;;;36.97;24.00;;;;;;;5.55;81.40;101826.81;4972557;28;20512;-75
2021/12/18 01:35:39;;;;;;;34.13;22.25;;;;;;;5.56;81.31;101820.69;4988486;28;20045;-77
2021/12/18 01:38:04;;;;;;;31.15;21.40;;;;;;;5.54;81.75;101812.88;4990231;28;20046;-77
2021/12/18 01:40:30;;;;;;;33.22;20.75;;;;;;;5.58;81.29;101819.84;4990915;28;20042;-76
2021/12/18 01:45:45;;;;;;;34.38;22.35;;;;;;;5.60;81.34;101822.47;4988501;28;20913;-76
2021/12/18 01:53:37;;;;;;;33.03;19.60;;;;;;;5.55;81.60;101827.69;4989727;28;20038;-77
2021/12/18 01:56:04;;;;;;;33.83;21.40;;;;;;;5.54;81.01;101828.56;4988795;28;20034;-77
2021/12/18 01:58:29;;;;;;;35.20;22.10;;;;;;;5.55;81.15;101834.66;4990642;28;20034;-77
2021/12/18 02:00:56;;;;;;;38.17;23.90;;;;;;;5.50;81.41;101832.03;4963371;28;20042;-77
2021/12/18 02:03:22;;;;;;;36.83;22.98;;;;;;;5.48;81.32;101827.66;4986297;28;20042;-77
2021/12/18 02:05:49;;;;;;;39.38;25.00;;;;;;;5.44;81.73;101825.88;4988293;28;20438;-74
2021/12/18 02:08:20;;;;;;;42.80;25.77;;;;;;;5.40;81.40;101818.91;4988591;28;20030;-77
2021/12/18 02:10:51;;;;;;;32.08;20.20;;;;;;;5.38;81.92;101818.88;4971381;28;20038;-74
2021/12/18 02:21:10;;;;;;;32.17;20.63;;;;;;;5.34;81.36;101810.16;4988909;28;20049;-74
2021/12/18 02:23:40;;;;;;;38.70;22.05;;;;;;;5.32;81.66;101798.81;4989187;28;20085;-74
2021/12/18 02:26:06;;;;;;;40.45;23.30;;;;;;;5.24;81.84;101800.53;4989800;28;20470;-75
2021/12/18 02:28:31;;;;;;;35.38;22.27;;;;;;;5.25;82.18;101801.41;4990686;28;20073;-75
2021/12/18 02:30:57;;;;;;;33.22;23.08;;;;;;;5.14;82.34;101802.22;4990929;28;20492;-76
2021/12/18 02:33:26;;;;;;;40.03;23.30;;;;;;;5.13;82.40;101804.81;4990161;28;20073;-74
2021/12/18 02:35:54;;;;;;;41.05;25.95;;;;;;;5.10;83.15;101800.44;4988689;28;20061;-74
2021/12/18 02:38:30;;;;;;;39.00;23.30;;;;;;;5.14;82.50;101801.31;4988813;28;20081;-74
2021/12/18 02:41:14;;;;;;;37.97;25.27;;;;;;;5.18;82.47;101797.88;4972536;28;20380;-77
2021/12/18 02:43:42;;;;;;;36.88;24.73;;;;;;;5.18;82.85;101803.09;4988542;28;20038;-75
2021/12/18 02:46:09;;;;;;;38.60;24.02;;;;;;;5.23;82.31;101795.28;4988513;28;20058;-75
2021/12/18 02:48:38;;;;;;;39.22;24.23;;;;;;;5.25;82.78;101794.41;4971856;28;20054;-76
2021/12/18 02:51:06;;;;;;;45.80;27.70;;;;;;;5.31;82.08;101796.19;4988578;28;20526;-76
2021/12/18 02:53:32;;;;;;;45.45;27.20;;;;;;;5.29;82.32;101797.91;4988848;28;20038;-77
2021/12/18 02:56:00;;;;;;;36.03;24.15;;;;;;;5.35;82.19;101788.34;4989028;28;20133;-76
2021/12/18 02:58:26;;;;;;;43.75;27.52;;;;;;;5.37;81.94;101797.09;4989461;28;20034;-76
2021/12/18 03:00:54;;;;;;;43.45;26.42;;;;;;;5.38;82.16;101793.59;4971752;28;20057;-76
2021/12/18 03:03:23;;;;;;;41.70;26.48;;;;;;;5.38;81.75;101795.34;4988866;28;20145;-76
2021/12/18 03:06:03;;;;;;;40.55;26.13;;;;;;;5.41;82.41;101794.47;4954621;28;20030;-76
2021/12/18 03:25:26;;;;;;;42.83;25.63;;;;;;;5.53;81.83;101781.44;4992358;28;20398;-73
2021/12/18 03:27:30;;;;;;;47.42;27.83;;;;;;;5.52;81.33;101774.50;4989356;28;20027;-78
2021/12/18 03:29:55;;;;;;;40.80;26.75;;;;;;;5.52;81.76;101777.09;4992324;28;20062;-74
2021/12/18 03:32:23;;;;;;;46.92;30.13;;;;;;;5.53;81.63;101778.84;4992543;28;20066;-75
2021/12/18 03:34:49;;;;;;;44.15;29.45;;;;;;;5.53;81.66;101773.59;4991193;28;20045;-75
2021/12/18 03:37:14;;;;;;;47.97;28.98;;;;;;;5.50;82.27;101774.47;4991782;28;20498;-74
2021/12/18 03:39:40;;;;;;;52.78;29.80;;;;;;;5.48;82.02;101781.44;4991564;28;20066;-75
2021/12/18 03:42:06;;;;;;;43.63;29.25;;;;;;;5.56;82.13;101791.91;4991495;28;20093;-75
2021/12/18 03:44:33;;;;;;;48.70;30.63;;;;;;;5.48;81.61;101788.41;4992002;28;20039;-74
2021/12/18 03:46:59;;;;;;;57.42;34.05;;;;;;;5.47;82.34;101789.28;4990981;28;20566;-75
2021/12/18 03:49:24;;;;;;;51.88;32.55;;;;;;;5.49;82.50;101779.69;4991819;28;20138;-74
2021/12/18 03:51:49;;;;;;;52.70;31.38;;;;;;;5.52;81.59;101779.72;4974230;28;20100;-74
2021/12/18 03:54:15;;;;;;;45.72;30.27;;;;;;;5.52;81.98;101780.59;4991169;28;20077;-76
2021/12/18 03:56:40;;;;;;;49.58;32.17;;;;;;;5.44;82.42;101784.94;4990559;28;20035;-75
2021/12/18 03:59:05;;;;;;;55.63;35.22;;;;;;;5.46;82.20;101785.78;4991390;28;20121;-75
2021/12/18 04:01:31;;;;;;;46.10;32.08;;;;;;;5.50;81.84;101787.56;4991543;28;20572;-74
2021/12/18 04:03:57;;;;;;;50.80;31.35;;;;;;;5.48;81.94;101785.78;4995551;28;20138;-75
2021/12/18 04:06:22;;;;;;;49.75;31.63;;;;;;;5.49;81.76;101785.81;4992089;28;20086;-75
2021/12/18 04:08:48;;;;;;;59.10;35.33;;;;;;;5.51;81.62;101789.31;4994197;28;20062;-75
2021/12/18 04:11:13;;;;;;;49.33;32.50;;;;;;;5.44;81.99;101792.78;4998833;28;20042;-74
2021/12/18 04:13:43;;;;;;;52.85;31.92;;;;;;;5.37;82.82;101799.72;5000437;28;20113;-75
2021/12/18 04:16:09;;;;;;;52.28;33.55;;;;;;;5.31;82.24;101799.66;5001102;28;20107;-74
2021/12/18 04:18:35;;;;;;;51.90;31.15;;;;;;;5.28;82.71;101797.03;4991580;28;20027;-74
2021/12/18 04:21:00;;;;;;;58.50;36.58;;;;;;;5.31;82.93;101796.19;4991903;28;20034;-76
2021/12/18 04:23:26;;;;;;;58.38;36.03;;;;;;;5.38;82.68;101800.56;4990620;28;20030;-77
2021/12/18 04:25:51;;;;;;;50.35;32.90;;;;;;;5.43;82.65;101801.47;4990119;28;20038;-77
2021/12/18 04:28:17;;;;;;;54.40;33.95;;;;;;;5.44;82.15;101802.34;4991071;28;20061;-77
2021/12/18 04:30:42;;;;;;;51.65;32.33;;;;;;;5.48;82.30;101799.75;4990752;28;20030;-76
2021/12/18 04:33:08;;;;;;;51.80;32.25;;;;;;;5.52;82.27;101805.88;4990553;28;20510;-77
2021/12/18 04:35:33;;;;;;;49.40;32.13;;;;;;;5.55;82.34;101798.91;4991355;28;20039;-77
2021/12/18 04:37:58;;;;;;;56.50;34.92;;;;;;;5.52;81.89;101806.75;4991599;28;20373;-77
2021/12/18 04:40:26;;;;;;;58.28;32.67;;;;;;;5.47;81.96;101805.00;4991739;28;20047;-76
2021/12/18 04:42:55;;;;;;;51.65;33.10;;;;;;;5.50;82.30;101807.59;4973894;28;20030;-77
2021/12/18 04:45:20;;;;;;;53.70;31.85;;;;;;;5.45;81.81;101802.34;4989778;28;20050;-77
2021/12/18 04:47:46;;;;;;;62.88;36.40;;;;;;;5.42;82.44;101811.94;4989791;28;20084;-77
2021/12/18 04:50:12;;;;;;;56.45;36.40;;;;;;;5.35;82.46;101809.28;4990787;28;20037;-76
2021/12/18 04:52:37;;;;;;;55.75;35.28;;;;;;;5.37;82.79;101804.06;4974011;28;20375;-77
2021/12/18 04:55:05;;;;;;;56.13;34.63;;;;;;;5.42;82.64;101806.72;4989955;28;20046;-77
2021/12/18 04:57:30;;;;;;;59.70;35.70;;;;;;;5.28;82.74;101804.88;4990699;28;20081;-77
2021/12/18 04:59:56;;;;;;;58.40;35.20;;;;;;;5.31;83.13;101799.66;4956076;28;20042;-77
2021/12/18 05:02:25;;;;;;;63.38;38.13;;;;;;;5.31;82.79;101798.78;4972912;28;20030;-77
2021/12/18 05:04:52;;;;;;;60.33;36.22;;;;;;;5.36;82.84;101802.31;4989833;28;20065;-77
2021/12/18 05:07:18;;;;;;;63.75;37.97;;;;;;;5.40;82.80;101803.22;4972093;28;20074;-76
2021/12/18 05:09:44;;;;;;;58.17;34.53;;;;;;;5.30;82.37;101807.53;4989572;28;20521;-78
2021/12/18 05:12:10;;;;;;;64.30;35.95;;;;;;;5.28;82.95;101804.03;4990208;28;20498;-77
2021/12/18 05:14:36;;;;;;;63.63;36.10;;;;;;;5.35;82.85;101811.03;4990013;28;20037;-77
2021/12/18 05:17:02;;;;;;;61.20;35.58;;;;;;;5.37;82.60;101804.94;4990053;28;20038;-77
2021/12/18 05:19:27;;;;;;;55.15;35.10;;;;;;;5.41;82.18;101794.47;4990293;28;20463;-77
2021/12/18 05:21:52;;;;;;;64.10;36.47;;;;;;;5.36;82.50;101802.31;4990103;28;20034;-77
2021/12/18 05:24:18;;;;;;;67.90;40.88;;;;;;;5.29;82.38;101798.81;4989970;28;20125;-74
2021/12/18 05:26:43;;;;;;;69.15;39.50;;;;;;;5.23;82.83;101796.16;4972371;28;20037;-75
2021/12/18 05:29:08;;;;;;;58.10;36.08;;;;;;;5.23;83.76;101795.28;4990216;28;20422;-76
2021/12/18 05:31:34;;;;;;;59.03;34.10;;;;;;;5.26;82.99;101795.28;4990098;28;20038;-75
2021/12/18 05:34:00;;;;;;;55.33;33.65;;;;;;;5.25;83.52;101801.41;4972047;28;20038;-74
2021/12/18 05:38:55;;;;;;;58.72;32.95;;;;;;;5.25;83.46;101802.25;4989670;28;20082;-75
2021/12/18 05:41:20;;;;;;;64.90;36.30;;;;;;;5.26;83.13;101810.97;4972382;28;20517;-76
2021/12/18 05:43:45;;;;;;;63.17;36.10;;;;;;;5.21;83.29;101816.19;4988619;28;20031;-75
2021/12/18 05:46:11;;;;;;;61.38;35.30;;;;;;;5.27;82.67;101828.44;4988489;28;20061;-75
2021/12/18 05:48:36;;;;;;;65.18;38.40;;;;;;;5.30;82.76;101818.84;4972487;28;20034;-75
2021/12/18 05:51:05;;;;;;;60.75;37.50;;;;;;;5.24;82.46;101823.16;4989868;28;20035;-75
2021/12/18 05:53:30;;;;;;;71.68;36.30;;;;;;;5.16;83.04;101828.34;4971580;28;20409;-74
2021/12/18 05:55:56;;;;;;;63.40;36.92;;;;;;;5.18;83.15;101821.41;4988914;28;20047;-74
2021/12/18 05:58:21;;;;;;;61.90;35.38;;;;;;;5.26;82.77;101824.91;4972565;28;20100;-75
2021/12/18 06:00:46;;;;;;;65.25;35.50;;;;;;;5.30;82.65;101816.22;4990443;28;20039;-77
2021/12/18 06:03:12;;;;;;;64.03;36.05;;;;;;;5.29;82.83;101819.72;4972910;28;20045;-77
2021/12/18 06:05:37;;;;;;;59.28;34.10;;;;;;;5.31;82.96;101814.47;4971788;28;20030;-76
2021/12/18 06:08:05;;;;;;;69.07;37.80;;;;;;;5.34;82.45;101823.25;4971975;28;20053;-77
2021/12/18 06:10:33;;;;;;;57.63;34.45;;;;;;;5.23;83.10;101818.81;4971615;28;20400;-77
2021/12/18 06:13:01;;;;;;;71.05;39.95;;;;;;;5.22;82.59;101825.78;4989721;28;20050;-77
2021/12/18 06:15:27;;;;;;;56.05;33.88;;;;;;;5.16;83.28;101824.00;4988364;28;20038;-78
2021/12/18 06:17:53;;;;;;;56.45;34.72;;;;;;;5.26;83.03;101824.06;4988583;28;20057;-77
2021/12/18 06:20:18;;;;;;;60.05;35.22;;;;;;;5.31;82.59;101823.19;4988998;28;20035;-77
2021/12/18 06:22:44;;;;;;;63.10;36.35;;;;;;;5.30;82.47;101820.59;4971989;28;20348;-77
2021/12/18 06:25:09;;;;;;;65.70;37.75;;;;;;;5.15;83.36;101811.78;4988454;28;20184;-77
2021/12/18 06:27:34;;;;;;;73.80;39.45;;;;;;;5.08;83.34;101822.22;4972376;28;20053;-76
2021/12/18 06:30:01;;;;;;;69.72;37.47;;;;;;;5.08;83.69;101827.44;4972407;28;20085;-77
2021/12/18 06:32:27;;;;;;;73.25;35.83;;;;;;;5.16;83.73;101815.28;4972314;28;20129;-77
2021/12/18 06:34:52;;;;;;;59.17;36.13;;;;;;;5.19;83.74;101824.88;4989248;28;20034;-77
2021/12/18 06:37:17;;;;;;;70.20;39.25;;;;;;;5.19;83.59;101820.50;4989271;28;20037;-77
2021/12/18 06:39:43;;;;;;;65.72;38.50;;;;;;;5.19;83.70;101815.28;4989562;28;20057;-77
2021/12/18 06:42:08;;;;;;;62.17;34.28;;;;;;;5.21;83.88;101817.91;4972441;28;20042;-77
2021/12/18 06:44:33;;;;;;;65.30;34.22;;;;;;;5.16;84.11;101815.28;4989476;28;20034;-78
2021/12/18 06:46:59;;;;;;;66.03;38.13;;;;;;;5.16;84.15;101817.88;4971201;28;20394;-77
2021/12/18 06:49:24;;;;;;;100.78;49.33;;;;;;;5.08;83.63;101816.97;4972467;28;20062;-78
2021/12/18 06:51:49;;;;;;;68.35;39.88;;;;;;;4.98;84.74;101817.78;4994162;28;20031;-77
2021/12/18 06:54:15;;;;;;;89.30;42.13;;;;;;;4.95;84.63;101824.75;5004803;28;20098;-75
2021/12/18 06:56:40;;;;;;;78.40;42.70;;;;;;;4.91;85.36;101819.47;5008200;28;20106;-76
2021/12/18 06:59:06;;;;;;;90.55;45.30;;;;;;;4.92;85.12;101808.16;5010922;28;20034;-76
2021/12/18 07:01:31;;;;;;;71.82;39.17;;;;;;;4.99;85.11;101811.69;5008906;28;20117;-78
2021/12/18 07:03:57;;;;;;;69.60;38.55;;;;;;;5.03;85.09;101801.25;5000688;28;20025;-77
2021/12/18 07:06:22;;;;;;;71.35;37.03;;;;;;;5.07;85.01;101800.44;4994126;28;20054;-77
2021/12/18 07:08:48;;;;;;;76.65;39.80;;;;;;;5.12;84.93;101803.94;4995927;28;20048;-77
2021/12/18 07:11:13;;;;;;;75.45;43.80;;;;;;;5.06;85.03;101800.41;5009354;28;20053;-77
2021/12/18 07:13:38;;;;;;;76.13;39.03;;;;;;;5.08;85.14;101804.78;5012218;28;20327;-76
2021/12/18 07:16:04;;;;;;;73.07;37.17;;;;;;;5.09;85.12;101805.66;5011694;28;20034;-77
2021/12/18 07:18:30;;;;;;;85.32;40.25;;;;;;;5.07;85.17;101812.59;5006835;28;20121;-77
2021/12/18 07:20:56;;;;;;;77.60;43.25;;;;;;;5.04;85.66;101809.97;5010292;28;20039;-76
2021/12/18 07:23:21;;;;;;;83.90;37.85;;;;;;;5.03;85.68;101818.69;5004508;28;20039;-76
2021/12/18 07:25:47;;;;;;;77.00;37.30;;;;;;;5.00;85.89;101827.41;5006388;28;20050;-77
2021/12/18 07:28:12;;;;;;;92.22;39.67;;;;;;;4.87;86.66;101826.44;5006386;28;20593;-76
2021/12/18 07:30:38;;;;;;;82.72;40.45;;;;;;;4.90;87.10;101825.59;4998449;28;20040;-77
2021/12/18 07:33:09;;;;;;;70.72;35.50;;;;;;;5.00;87.10;101829.13;4994622;28;20096;-77
2021/12/18 07:35:35;;;;;;;68.78;36.50;;;;;;;5.07;86.92;101837.03;4991473;28;20117;-77
2021/12/18 07:38:00;;;;;;;65.47;35.03;;;;;;;5.15;86.52;101839.69;4975383;28;20506;-77
2021/12/18 07:40:26;;;;;;;98.30;38.83;;;;;;;5.06;85.91;101839.63;4975391;28;20034;-77
2021/12/18 07:42:51;;;;;;;84.38;37.80;;;;;;;5.06;86.92;101839.63;4991110;28;20061;-76
2021/12/18 07:45:17;;;;;;;76.90;35.53;;;;;;;5.11;87.11;101840.53;4974305;28;20062;-77
2021/12/18 07:47:42;;;;;;;72.72;33.47;;;;;;;5.13;86.29;101833.56;4993021;28;20039;-76
2021/12/18 07:50:12;;;;;;;87.22;36.55;;;;;;;5.13;86.12;101831.81;4992622;28;20082;-77
2021/12/18 07:52:38;;;;;;;95.90;35.30;;;;;;;5.12;86.37;101830.09;4983114;28;20149;-77
2021/12/18 07:55:04;;;;;;;101.90;40.72;;;;;;;5.05;86.79;101830.03;4991531;28;20449;-78
2021/12/18 07:57:29;;;;;;;86.20;35.17;;;;;;;5.07;87.36;101828.28;4991405;28;20046;-75
2021/12/18 07:59:54;;;;;;;87.45;34.63;;;;;;;5.07;87.14;101820.44;4974213;28;20398;-76
2021/12/18 08:02:20;;;;;;;79.40;32.22;;;;;;;5.05;86.99;101828.28;4992135;28;20030;-77
2021/12/18 08:04:45;;;;;;;152.55;44.38;;;;;;;5.02;87.38;101828.28;4976997;28;20510;-76
2021/12/18 08:07:11;;;;;;;70.95;31.98;;;;;;;4.99;87.21;101836.09;4994336;28;20034;-77
2021/12/18 08:09:36;;;;;;;92.18;35.45;;;;;;;4.95;87.62;101836.94;4991966;28;20034;-76
2021/12/18 08:12:01;;;;;;;59.38;27.65;;;;;;;4.99;87.54;101833.47;4991270;28;20057;-76
2021/12/18 08:14:27;;;;;;;66.93;32.00;;;;;;;4.99;88.12;101827.38;4957423;28;20042;-76
2021/12/18 08:16:52;;;;;;;80.20;35.80;;;;;;;5.01;87.96;101829.13;4991285;28;20129;-75
2021/12/18 08:19:18;;;;;;;76.20;32.72;;;;;;;5.01;87.55;101830.88;4991161;28;20038;-77
2021/12/18 08:21:43;;;;;;;88.10;36.47;;;;;;;5.00;88.03;101827.41;4990900;28;20466;-75
2021/12/18 08:24:08;;;;;;;69.93;32.13;;;;;;;5.02;88.29;101828.28;4991804;28;20060;-78
2021/12/18 08:26:34;;;;;;;49.22;26.20;;;;;;;5.07;88.11;101825.66;4973113;28;20038;-77
2021/12/18 08:28:59;;;;;;;55.75;27.52;;;;;;;5.10;87.80;101831.81;4991715;28;20494;-75
2021/12/18 08:31:25;;;;;;;46.38;24.67;;;;;;;5.16;87.90;101833.59;4957916;28;20125;-76
2021/12/18 08:33:50;;;;;;;49.33;25.73;;;;;;;5.18;87.23;101828.38;4990411;28;20052;-76
2021/12/18 08:36:15;;;;;;;59.47;29.10;;;;;;;5.14;87.25;101832.69;4991014;28;20446;-77
2021/12/18 08:38:41;;;;;;;50.40;26.38;;;;;;;5.13;87.82;101823.09;4991274;28;20397;-78
2021/12/18 08:41:06;;;;;;;51.47;26.35;;;;;;;5.15;87.26;101824.00;4974248;28;20093;-76
2021/12/18 08:43:32;;;;;;;48.10;23.63;;;;;;;5.16;87.01;101821.38;4991476;28;20092;-75
2021/12/18 08:45:57;;;;;;;54.13;26.27;;;;;;;5.14;87.50;101833.59;4999630;28;20038;-74
2021/12/18 08:48:22;;;;;;;43.13;21.30;;;;;;;5.19;87.45;101825.75;4995484;28;20037;-78
2021/12/18 08:50:48;;;;;;;43.05;22.45;;;;;;;5.23;87.08;101817.06;4973857;28;20053;-75
2021/12/18 08:53:14;;;;;;;38.55;21.73;;;;;;;5.30;86.99;101812.75;4990560;28;20038;-77
2021/12/18 08:55:39;;;;;;;57.40;24.25;;;;;;;5.37;86.67;101812.78;4956376;28;20086;-77
2021/12/18 08:58:04;;;;;;;43.38;22.80;;;;;;;5.37;86.66;101815.41;4990044;28;20565;-77
2021/12/18 09:00:30;;;;;;;44.38;22.55;;;;;;;5.37;86.61;101815.41;4973007;28;20118;-75
2021/12/18 09:02:58;;;;;;;33.42;19.73;;;;;;;5.41;86.73;101815.41;4990454;28;20438;-76
2021/12/18 09:05:24;;;;;;;47.35;21.55;;;;;;;5.44;86.33;101815.41;4989308;28;20046;-77
2021/12/18 09:07:50;;;;;;;36.17;20.77;;;;;;;5.48;86.09;101812.81;4989964;28;20026;-77
2021/12/18 09:10:15;;;;;;;33.50;19.60;;;;;;;5.50;85.73;101807.59;4972648;28;20061;-78
2021/12/18 09:12:41;;;;;;;32.65;18.55;;;;;;;5.56;86.21;101807.63;4990661;28;20043;-76
2021/12/18 09:15:07;;;;;;;38.72;20.73;;;;;;;5.59;85.85;101811.13;4989959;28;20042;-77
2021/12/18 09:17:33;;;;;;;44.25;22.08;;;;;;;5.62;86.00;101805.03;4989854;28;20034;-77
2021/12/18 09:19:59;;;;;;;40.92;20.08;;;;;;;5.62;85.82;101799.81;4972264;28;20046;-76
2021/12/18 09:22:24;;;;;;;30.33;17.75;;;;;;;5.66;85.31;101805.91;4990484;28;20379;-76
2021/12/18 09:24:50;;;;;;;33.83;16.48;;;;;;;5.69;85.30;101796.34;4990064;28;20052;-77
2021/12/18 09:27:17;;;;;;;30.55;16.33;;;;;;;5.70;85.60;101805.94;4972919;28;20041;-75
2021/12/18 09:29:43;;;;;;;38.65;18.20;;;;;;;5.74;85.08;101805.09;4989971;28;20030;-76
2021/12/18 09:32:08;;;;;;;26.70;15.00;;;;;;;5.75;84.87;101806.81;4972946;28;20034;-76
2021/12/18 09:34:34;;;;;;;28.42;13.88;;;;;;;5.77;84.76;101818.16;4989695;28;20499;-76
2021/12/18 09:37:00;;;;;;;29.08;16.92;;;;;;;5.67;84.48;101819.00;4988060;28;20034;-77
2021/12/18 09:39:26;;;;;;;26.52;14.13;;;;;;;5.69;85.31;101826.88;4989582;28;20506;-76
2021/12/18 09:41:52;;;;;;;27.05;13.80;;;;;;;5.73;85.22;101824.25;4990074;28;20035;-75
2021/12/18 09:44:26;;;;;;;27.00;15.10;;;;;;;5.72;84.80;101824.28;4971995;28;20037;-78
2021/12/18 09:46:52;;;;;;;28.80;16.95;;;;;;;5.72;84.81;101832.13;4973266;28;20433;-75
2021/12/18 09:49:18;;;;;;;24.38;14.75;;;;;;;5.76;85.34;101816.44;4991426;28;20537;-75
2021/12/18 09:51:44;;;;;;;20.02;12.25;;;;;;;5.89;85.27;101813.84;4990697;28;20046;-77
2021/12/18 09:54:10;;;;;;;29.45;14.52;;;;;;;5.95;84.44;101821.75;4990829;28;20134;-76
2021/12/18 09:56:35;;;;;;;26.83;15.52;;;;;;;5.91;84.29;101812.13;4990078;28;20071;-77
2021/12/18 09:59:00;;;;;;;31.05;13.68;;;;;;;5.86;84.19;101819.06;4990887;28;20042;-77
2021/12/18 10:01:26;;;;;;;20.50;10.80;;;;;;;5.85;83.70;101806.84;4992837;28;20054;-76
2021/12/18 10:03:57;;;;;;;22.23;12.27;;;;;;;5.77;83.69;101812.94;4974721;28;20035;-76
2021/12/18 10:06:39;;;;;;;17.65;10.00;;;;;;;5.74;83.76;101812.94;4992088;28;20498;-74
2021/12/18 10:09:28;;;;;;;16.23;9.80;;;;;;;5.72;84.04;101816.41;4993415;28;20039;-76
2021/12/18 10:11:59;;;;;;;20.70;11.73;;;;;;;5.71;83.80;101815.53;4976111;28;20442;-76
2021/12/18 10:14:38;;;;;;;16.65;11.55;;;;;;;5.73;83.51;101810.31;4996430;28;20094;-77
2021/12/18 10:17:16;;;;;;;20.23;11.60;;;;;;;5.80;83.41;101812.94;4998381;28;20073;-76
2021/12/18 10:19:42;;;;;;;18.90;10.13;;;;;;;5.91;83.46;101812.13;5003753;28;20030;-77
2021/12/18 10:22:09;;;;;;;21.40;12.93;;;;;;;5.88;83.53;101805.13;5004684;28;20038;-74
2021/12/18 10:24:41;;;;;;;19.88;12.38;;;;;;;5.95;83.10;101803.41;5001598;28;20363;-76
2021/12/18 10:27:21;;;;;;;20.05;12.90;;;;;;;6.01;83.23;101806.06;5000099;28;20037;-76
2021/12/18 10:29:49;;;;;;;20.40;11.32;;;;;;;6.10;82.93;101798.19;4984840;28;20121;-77
2021/12/18 10:32:17;;;;;;;20.98;12.98;;;;;;;6.13;82.29;101795.63;5003154;28;20121;-76
2021/12/18 10:34:51;;;;;;;20.08;13.30;;;;;;;6.11;81.97;101792.13;4993268;28;20397;-75
2021/12/18 10:37:24;;;;;;;20.88;11.23;;;;;;;6.08;81.87;101789.50;4989101;28;20119;-78
2021/12/18 10:39:50;;;;;;;21.70;14.15;;;;;;;6.05;82.20;101791.22;4972087;28;20149;-77
2021/12/18 10:42:20;;;;;;;26.80;15.88;;;;;;;6.08;82.11;101794.75;4989617;28;20038;-77
2021/12/18 10:44:54;;;;;;;23.92;14.38;;;;;;;6.13;81.84;101782.53;4988483;28;20037;-77
2021/12/18 10:47:20;;;;;;;19.27;11.75;;;;;;;6.12;81.49;101779.88;4989132;28;20433;-76
2021/12/18 10:49:45;;;;;;;25.73;15.98;;;;;;;6.14;81.18;101786.00;4972137;28;20027;-77
2021/12/18 10:52:10;;;;;;;22.05;14.80;;;;;;;6.12;81.53;101779.88;4989920;28;20035;-77
2021/12/18 10:54:36;;;;;;;20.33;14.60;;;;;;;6.16;81.83;101776.41;4988577;28;20495;-76
2021/12/18 10:57:02;;;;;;;23.63;14.00;;;;;;;6.11;81.63;101784.25;4988431;28;20073;-76
2021/12/18 10:59:34;;;;;;;25.30;15.27;;;;;;;6.10;82.17;101777.25;4988898;28;20065;-76
2021/12/18 11:02:02;;;;;;;28.80;17.15;;;;;;;6.09;81.75;101779.91;4988506;28;20450;-77
2021/12/18 11:04:39;;;;;;;26.40;15.10;;;;;;;6.14;81.84;101783.38;4989704;28;20044;-77
2021/12/18 11:07:26;;;;;;;23.45;14.10;;;;;;;6.16;81.87;101772.03;4971630;28;20118;-77
2021/12/18 11:10:13;;;;;;;25.85;15.88;;;;;;;6.20;82.02;101773.81;4989189;28;20050;-77
2021/12/18 11:15:25;;;;;;;27.33;13.80;;;;;;;6.24;81.36;101762.44;4987983;28;20041;-77
2021/12/18 11:17:51;;;;;;;25.70;15.25;;;;;;;6.25;81.71;101758.06;4973209;28;20125;-78
2021/12/18 11:20:17;;;;;;;27.77;14.75;;;;;;;6.24;81.81;101758.94;4981750;28;20050;-76
2021/12/18 11:22:43;;;;;;;27.75;16.30;;;;;;;6.25;81.20;101760.69;4983304;28;20169;-77
2021/12/18 11:25:10;;;;;;;24.80;15.98;;;;;;;6.28;81.53;101760.72;4989418;28;20117;-77
2021/12/18 11:27:36;;;;;;;34.55;19.08;;;;;;;6.23;81.48;101755.47;4987815;28;20529;-76
2021/12/18 11:30:10;;;;;;;29.33;16.27;;;;;;;6.31;82.01;101760.69;4989215;28;20042;-76
2021/12/18 11:32:40;;;;;;;27.38;17.13;;;;;;;6.25;81.96;101750.19;4971593;28;20042;-77
2021/12/18 11:35:09;;;;;;;34.97;19.67;;;;;;;6.18;82.65;101754.59;4988339;28;20046;-76
2021/12/18 11:37:40;;;;;;;30.95;16.60;;;;;;;6.16;82.14;101748.47;4972545;28;20030;-76
2021/12/18 11:40:09;;;;;;;26.15;15.45;;;;;;;6.12;82.62;101746.72;4988791;28;20054;-76
2021/12/18 11:42:37;;;;;;;31.40;17.48;;;;;;;6.11;83.18;101742.34;4991836;28;20034;-77
2021/12/18 11:45:06;;;;;;;28.02;16.73;;;;;;;6.10;82.93;101737.97;4974838;28;20150;-78
2021/12/18 11:47:38;;;;;;;33.47;19.48;;;;;;;6.21;82.96;101736.25;4974232;28;20133;-76
2021/12/18 11:50:06;;;;;;;33.40;18.27;;;;;;;6.23;82.53;101738.88;4975634;28;20552;-76
2021/12/18 11:52:53;;;;;;;28.30;17.30;;;;;;;6.33;82.77;101731.91;4993485;28;20038;-78
2021/12/18 11:55:18;;;;;;;31.80;18.63;;;;;;;6.27;82.71;101729.25;4992938;28;20042;-76
2021/12/18 11:57:52;;;;;;;35.83;23.30;;;;;;;6.18;83.07;101728.41;4992827;28;20052;-78
2021/12/18 12:00:17;;;;;;;35.50;20.67;;;;;;;6.21;83.16;101732.75;4993458;28;20038;-78
2021/12/18 12:02:48;;;;;;;36.00;20.35;;;;;;;6.23;83.06;101728.41;4995756;28;20042;-78
2021/12/18 12:05:16;;;;;;;30.25;19.38;;;;;;;6.26;82.38;101730.16;4993296;28;20402;-76